createdAt,value
2023-01-19T00:03:27.617Z,4.50
2023-01-19T00:08:30.172Z,4.50
2023-01-19T00:13:33.176Z,4.50
2023-01-19T00:18:36.270Z,4.40
2023-01-19T00:23:39.351Z,4.40
2023-01-19T00:28:42.115Z,4.40
2023-01-19T00:33:44.056Z,4.30
2023-01-19T00:38:46.125Z,4.30
2023-01-19T00:43:48.714Z,4.40
2023-01-19T00:48:50.742Z,4.30
2023-01-19T00:53:52.705Z,4.30
2023-01-19T00:58:54.744Z,4.20
2023-01-19T01:03:57.273Z,4.10
2023-01-19T01:08:59.341Z,4.20
2023-01-19T01:14:01.399Z,4.10
2023-01-19T01:19:03.485Z,4.10
2023-01-19T01:24:05.831Z,4.10
2023-01-19T01:29:08.716Z,4.10
2023-01-19T01:34:11.422Z,4.20
2023-01-19T01:39:13.599Z,4.00
2023-01-19T01:44:49.702Z,3.90
2023-01-19T01:50:05.346Z,3.80
2023-01-19T01:55:09.645Z,3.60
2023-01-19T02:00:14.795Z,3.50
2023-01-19T02:05:49.327Z,3.40
2023-01-19T02:11:14.834Z,3.40
2023-01-19T02:16:19.092Z,3.50
2023-01-19T02:21:44.926Z,3.40
2023-01-19T02:26:52.165Z,3.40
2023-01-19T02:31:58.396Z,3.30
2023-01-19T02:37:11.392Z,3.20
2023-01-19T02:42:25.952Z,3.30
2023-01-19T02:47:39.287Z,3.30
2023-01-19T02:52:42.065Z,3.30
2023-01-19T02:58:26.992Z,3.30
2023-01-19T03:03:39.725Z,3.20
2023-01-19T03:09:17.415Z,3.30
2023-01-19T03:14:25.335Z,3.20
2023-01-19T03:19:39.490Z,3.30
2023-01-19T03:24:44.783Z,3.30
2023-01-19T03:29:56.756Z,3.30
2023-01-19T03:35:05.863Z,3.30
2023-01-19T03:40:09.473Z,3.40
2023-01-19T03:45:14.069Z,3.50
2023-01-19T03:50:27.540Z,3.50
2023-01-19T03:55:29.618Z,3.50
2023-01-19T04:00:33.288Z,3.60
2023-01-19T04:05:35.178Z,3.60
2023-01-19T04:10:37.291Z,3.60
2023-01-19T04:15:39.258Z,3.70
2023-01-19T04:20:41.136Z,3.70
2023-01-19T04:25:42.930Z,3.70
2023-01-19T04:30:44.734Z,3.60
2023-01-19T04:35:47.498Z,3.60
2023-01-19T04:40:50.046Z,3.40
2023-01-19T04:45:51.967Z,3.30
2023-01-19T04:50:53.997Z,3.30
2023-01-19T04:55:56.004Z,3.20
2023-01-19T05:00:57.900Z,3.20
2023-01-19T05:05:59.789Z,3.20
2023-01-19T05:11:01.966Z,3.20
2023-01-19T05:16:04.061Z,3.20
2023-01-19T05:21:10.049Z,3.20
2023-01-19T05:26:12.085Z,3.10
2023-01-19T05:31:14.065Z,3.10
2023-01-19T05:36:15.981Z,3.00
2023-01-19T05:41:17.852Z,3.00
2023-01-19T05:46:19.755Z,3.00
2023-01-19T05:51:21.617Z,3.00
2023-01-19T05:56:23.515Z,2.90
2023-01-19T06:01:25.583Z,2.90
2023-01-19T06:06:27.529Z,2.90
2023-01-19T06:11:29.534Z,3.00
2023-01-19T06:16:31.541Z,2.90
2023-01-19T06:21:34.426Z,2.80
2023-01-19T06:26:37.383Z,2.70
2023-01-19T06:31:39.462Z,2.60
2023-01-19T06:36:41.660Z,2.50
2023-01-19T06:41:43.677Z,2.40
2023-01-19T06:46:45.637Z,2.30
2023-01-19T06:51:47.660Z,2.20
2023-01-19T06:56:49.612Z,2.20
2023-01-19T07:01:51.659Z,2.20
2023-01-19T07:06:55.742Z,2.10
2023-01-19T07:11:59.173Z,2.10
2023-01-19T07:17:02.323Z,2.10
2023-01-19T07:22:04.381Z,2.00
2023-01-19T07:27:06.365Z,2.00
2023-01-19T07:32:08.625Z,2.10
2023-01-19T07:37:13.033Z,2.10
2023-01-19T07:42:17.515Z,2.20
2023-01-19T07:47:19.515Z,2.20
2023-01-19T07:52:23.007Z,2.20
2023-01-19T07:57:24.992Z,2.30
2023-01-19T08:02:30.202Z,2.40
2023-01-19T08:07:34.748Z,2.50
2023-01-19T08:12:36.821Z,2.70
2023-01-19T08:17:38.748Z,2.80
2023-01-19T08:22:40.956Z,3.00
2023-01-19T08:27:42.897Z,3.20
2023-01-19T08:32:44.909Z,3.60
2023-01-19T08:37:47.167Z,4.20
2023-01-19T08:42:49.141Z,4.80
2023-01-19T08:47:51.093Z,5.20
2023-01-19T08:52:53.175Z,5.50
2023-01-19T08:58:00.273Z,5.50
2023-01-19T09:03:04.329Z,5.80
2023-01-19T09:08:11.943Z,6.00
2023-01-19T09:13:14.774Z,6.20
2023-01-19T09:18:19.259Z,6.30
2023-01-19T09:23:22.738Z,6.40
2023-01-19T09:28:29.366Z,6.70
2023-01-19T09:33:31.368Z,7.00
2023-01-19T09:38:34.028Z,7.50
2023-01-19T09:43:47.765Z,8.10
2023-01-19T09:48:58.438Z,8.70
2023-01-19T09:54:15.855Z,8.60
2023-01-19T10:44:29.895Z,9.20
2023-01-19T10:49:40.665Z,9.30
2023-01-19T10:54:44.100Z,9.30
2023-01-19T10:59:51.165Z,8.90
2023-01-19T11:04:59.510Z,8.60
2023-01-19T11:10:12.441Z,8.20
2023-01-19T11:15:24.497Z,8.30
2023-01-19T11:20:32.690Z,8.60
2023-01-19T11:25:36.799Z,8.50
2023-01-19T11:30:38.767Z,9.00
2023-01-19T11:35:42.939Z,9.10
2023-01-19T11:40:58.451Z,8.80
2023-01-19T11:46:03.503Z,8.40
2023-01-19T11:51:10.586Z,7.80
2023-01-19T11:56:14.736Z,7.70
2023-01-19T12:01:27.769Z,7.60
2023-01-19T12:06:41.567Z,7.20
2023-01-19T12:12:03.846Z,7.10
2023-01-19T12:17:13.576Z,7.20
2023-01-19T12:22:17.989Z,7.10
2023-01-19T12:27:38.419Z,7.20
2023-01-19T12:32:40.520Z,7.30
2023-01-19T12:37:44.605Z,7.30
2023-01-19T12:42:51.335Z,7.50
2023-01-19T12:47:54.869Z,7.60
2023-01-19T12:53:02.724Z,7.50
2023-01-19T12:58:21.027Z,7.30
2023-01-19T13:03:26.595Z,7.30
2023-01-19T13:08:49.608Z,7.00
2023-01-19T13:14:00.607Z,6.80
2023-01-19T13:19:17.706Z,6.70
2023-01-19T13:24:22.519Z,6.60
2023-01-19T13:29:36.943Z,6.70
2023-01-19T13:34:59.262Z,6.80
2023-01-19T13:40:02.666Z,6.80
2023-01-19T13:45:37.162Z,7.00
2023-01-19T13:50:39.475Z,7.20
2023-01-19T13:55:41.448Z,7.40
2023-01-19T14:00:45.744Z,7.50
2023-01-19T14:05:51.810Z,7.50
2023-01-19T14:10:56.622Z,7.70
2023-01-19T14:16:14.985Z,7.80
2023-01-19T14:21:20.910Z,7.70
2023-01-19T14:26:42.317Z,7.70
2023-01-19T14:32:03.622Z,7.70
2023-01-19T14:37:25.574Z,7.60
2023-01-19T14:42:33.426Z,7.30
2023-01-19T14:47:36.956Z,7.10
2023-01-19T14:52:41.756Z,7.10
2023-01-19T14:57:43.595Z,7.00
2023-01-19T15:02:46.445Z,6.80
2023-01-19T15:07:48.454Z,6.80
2023-01-19T15:12:51.902Z,6.70
2023-01-19T15:17:56.284Z,6.90
2023-01-19T15:22:58.341Z,7.10
2023-01-19T15:28:01.380Z,7.20
2023-01-19T15:33:03.253Z,7.20
2023-01-19T15:38:05.139Z,7.10
2023-01-19T15:43:07.067Z,7.00
2023-01-19T15:48:11.692Z,6.80
2023-01-19T15:53:19.093Z,6.60
2023-01-19T15:58:21.199Z,6.60
2023-01-19T16:03:24.270Z,6.50
2023-01-19T16:08:26.187Z,6.50
2023-01-19T16:13:30.003Z,6.40
2023-01-19T16:18:34.473Z,6.20
2023-01-19T16:23:36.448Z,6.20
2023-01-19T16:28:38.391Z,6.10
2023-01-19T16:33:40.287Z,5.90
2023-01-19T16:38:42.157Z,5.80
2023-01-19T16:43:44.445Z,5.60
2023-01-19T16:54:36.656Z,5.60
2023-01-19T16:59:45.435Z,5.70
2023-01-19T17:05:14.798Z,5.60
2023-01-19T17:10:23.776Z,5.70
2023-01-19T17:15:52.098Z,5.70
2023-01-19T17:20:56.349Z,5.70
2023-01-19T17:26:07.871Z,5.60
2023-01-19T17:31:40.594Z,5.60
2023-01-19T17:36:53.788Z,5.70
2023-01-19T17:42:37.078Z,5.70
2023-01-19T17:54:09.677Z,5.70
2023-01-19T17:59:18.447Z,5.80
2023-01-19T18:04:54.368Z,5.70
2023-01-19T18:10:01.319Z,5.60
2023-01-19T18:15:16.010Z,5.60
2023-01-19T18:20:19.609Z,5.50
2023-01-19T18:25:24.971Z,5.50
2023-01-19T18:30:35.638Z,5.50
2023-01-19T18:35:43.428Z,5.50
2023-01-19T18:40:46.939Z,5.40
2023-01-19T18:45:50.221Z,5.20
2023-01-19T18:50:56.151Z,5.30
2023-01-19T18:56:02.157Z,5.30
2023-01-19T19:01:05.766Z,5.10
2023-01-19T19:06:08.093Z,5.00
2023-01-19T19:11:12.713Z,5.10
2023-01-19T19:16:18.682Z,5.10
2023-01-19T19:21:25.497Z,5.00
2023-01-19T19:26:36.409Z,4.90
2023-01-19T19:31:38.937Z,4.80
2023-01-19T19:36:42.244Z,4.80
2023-01-19T19:41:47.308Z,4.70
2023-01-19T19:46:57.534Z,4.60
2023-01-19T19:52:17.881Z,4.50
2023-01-19T19:58:03.959Z,4.40
2023-01-19T20:05:49.158Z,4.30
2023-01-19T20:10:24.827Z,4.30
2023-01-19T20:16:11.503Z,4.20
2023-01-19T20:21:42.085Z,4.00
2023-01-19T20:27:02.176Z,4.00
2023-01-19T20:32:08.176Z,4.00
2023-01-19T20:37:18.171Z,3.90
2023-01-19T20:42:20.643Z,3.90
2023-01-19T20:47:23.332Z,3.80
2023-01-19T20:52:25.885Z,3.90
2023-01-19T20:57:28.153Z,3.80
2023-01-19T21:02:34.296Z,3.70
2023-01-19T21:07:38.916Z,3.60
2023-01-19T21:12:46.182Z,3.60
2023-01-19T21:17:48.334Z,3.60
2023-01-19T21:22:51.487Z,3.50
2023-01-19T21:27:53.470Z,3.60
2023-01-19T21:32:55.587Z,3.60
2023-01-19T21:38:00.592Z,3.60
2023-01-19T21:43:02.710Z,3.50
2023-01-19T21:48:04.893Z,3.50
2023-01-19T21:53:09.594Z,3.50
2023-01-19T21:58:11.511Z,3.50
2023-01-19T22:03:13.348Z,3.40
2023-01-19T22:08:15.144Z,3.40
2023-01-19T22:13:17.031Z,3.40
2023-01-19T22:18:20.801Z,3.30
2023-01-19T22:23:22.601Z,3.30
2023-01-19T22:28:24.424Z,3.30
2023-01-19T22:33:28.146Z,3.20
2023-01-19T22:38:30.072Z,3.20
2023-01-19T22:43:31.862Z,3.10
2023-01-19T22:48:33.953Z,2.90
2023-01-19T22:53:36.115Z,2.90
2023-01-19T22:58:41.683Z,2.80
2023-01-19T23:03:43.819Z,2.70
2023-01-19T23:08:45.854Z,2.70
2023-01-19T23:13:48.757Z,2.60
2023-01-19T23:18:54.101Z,2.60
2023-01-19T23:24:00.267Z,2.60
2023-01-19T23:29:02.399Z,2.50
2023-01-19T23:34:11.702Z,2.50
2023-01-19T23:39:13.601Z,2.50
2023-01-19T23:44:17.326Z,2.50
2023-01-19T23:49:19.303Z,2.60
2023-01-19T23:54:21.179Z,2.50
2023-01-19T23:59:23.162Z,2.40
